createdAt,value
2016-12-21T00:01:59.915Z,1015.9
2016-12-21T00:12:13.403Z,1016
2016-12-21T00:22:26.440Z,1016.1
2016-12-21T00:32:41.212Z,1016.1
2016-12-21T00:42:54.687Z,1016.2
2016-12-21T00:53:09.399Z,1016.3
2016-12-21T01:03:24.204Z,1016.3
2016-12-21T01:13:38.175Z,1016.3
2016-12-21T01:23:52.232Z,1016.4
2016-12-21T01:34:06.998Z,1016.5
2016-12-21T01:44:21.610Z,1016.8
2016-12-21T01:54:34.838Z,1016.8
2016-12-21T02:04:49.153Z,1016.9
2016-12-21T02:15:02.901Z,1016.9
2016-12-21T02:25:16.436Z,1017
2016-12-21T02:35:30.999Z,1017.3
2016-12-21T02:45:45.292Z,1017.5
2016-12-21T02:55:59.941Z,1017.3
2016-12-21T03:06:13.647Z,1017.3
2016-12-21T03:16:27.489Z,1017.3
2016-12-21T03:26:41.183Z,1017.2
2016-12-21T03:36:54.491Z,1017.3
2016-12-21T03:47:09.326Z,1017.3
2016-12-21T03:57:23.653Z,1017.4
2016-12-21T04:07:37.634Z,1017.4
2016-12-21T04:17:52.561Z,1017.3
2016-12-21T04:28:07.496Z,1017.3
2016-12-21T04:38:20.579Z,1017.5
2016-12-21T04:48:34.376Z,1017.7
2016-12-21T04:58:48.218Z,1017.6
2016-12-21T05:09:02.642Z,1017.8
2016-12-21T05:19:15.924Z,1017.7
2016-12-21T05:29:29.484Z,1017.6
2016-12-21T05:39:44.481Z,1017.7
2016-12-21T05:49:58.599Z,1017.9
2016-12-21T06:00:12.757Z,1017.9
2016-12-21T06:10:25.847Z,1017.7
2016-12-21T06:20:39.523Z,1017.7
2016-12-21T06:30:53.593Z,1017.7
2016-12-21T06:41:07.832Z,1017.8
2016-12-21T06:51:21.317Z,1017.7
2016-12-21T07:01:34.947Z,1017.8
2016-12-21T07:22:02.301Z,1017.9
2016-12-21T07:32:15.964Z,1018
2016-12-21T07:42:30.721Z,1017.9
2016-12-21T07:52:44.647Z,1017.9
2016-12-21T08:02:59.183Z,1017.9
2016-12-21T08:13:14.175Z,1018.1
2016-12-21T08:23:28.206Z,1018.3
2016-12-21T08:33:41.969Z,1018.3
2016-12-21T08:43:55.278Z,1018.2
2016-12-21T08:54:08.905Z,1018.2
2016-12-21T09:04:23.529Z,1018.3
2016-12-21T09:14:37.172Z,1018.5
2016-12-21T09:24:51.666Z,1018.4
2016-12-21T09:35:06.138Z,1018.6
2016-12-21T09:45:19.826Z,1018.8
2016-12-21T09:55:33.168Z,1018.6
2016-12-21T10:05:48.056Z,1018.4
2016-12-21T10:16:02.289Z,1018.5
2016-12-21T10:26:17.041Z,1018.6
2016-12-21T10:46:45.244Z,1018.6
2016-12-21T10:56:58.352Z,1018.5
2016-12-21T11:07:13.248Z,1018.7
2016-12-21T11:17:27.556Z,1018.5
2016-12-21T11:27:41.394Z,1018.5
2016-12-21T11:37:55.333Z,1018.3
2016-12-21T11:48:10.249Z,1018.3
2016-12-21T11:58:23.792Z,1018.3
2016-12-21T12:08:36.934Z,1018.2
2016-12-21T12:18:51.523Z,1018.1
2016-12-21T12:29:06.164Z,1018.1
2016-12-21T12:39:19.908Z,1018.1
2016-12-21T12:49:33.986Z,1018.2
2016-12-21T12:59:48.713Z,1018
2016-12-21T13:10:02.869Z,1018.1
2016-12-21T13:20:17.402Z,1018.2
2016-12-21T13:30:32.255Z,1018.5
2016-12-21T13:40:45.999Z,1018.4
2016-12-21T13:51:00.527Z,1018.5
2016-12-21T14:01:13.942Z,1018.6
2016-12-21T14:11:27.966Z,1018.4
2016-12-21T14:21:43.029Z,1018.3
2016-12-21T14:31:56.680Z,1018.3
2016-12-21T14:42:09.898Z,1018.3
2016-12-21T14:52:24.820Z,1018.3
2016-12-21T15:02:38.735Z,1018.2
2016-12-21T15:12:53.630Z,1018.2
2016-12-21T15:23:08.402Z,1018.1
2016-12-21T15:33:22.463Z,1018.3
2016-12-21T15:43:37.227Z,1018.4
2016-12-21T15:53:50.550Z,1018.3
2016-12-21T16:04:05.341Z,1018.2
2016-12-21T16:14:19.374Z,1018.1
2016-12-21T16:24:34.369Z,1018.3
2016-12-21T16:34:48.648Z,1018.3
2016-12-21T16:45:02.784Z,1018.4
2016-12-21T16:55:16.198Z,1018.3
2016-12-21T17:05:29.733Z,1018.2
2016-12-21T17:15:43.027Z,1018.1
2016-12-21T17:25:56.940Z,1018
2016-12-21T17:36:11.268Z,1017.9
2016-12-21T17:46:24.455Z,1017.9
2016-12-21T17:56:38.190Z,1018
2016-12-21T18:06:51.827Z,1018.2
2016-12-21T18:17:06.357Z,1018.3
2016-12-21T18:27:20.747Z,1018.4
2016-12-21T18:37:33.647Z,1018.4
2016-12-21T18:47:48.320Z,1018.5
2016-12-21T18:58:02.349Z,1018.3
2016-12-21T19:18:28.944Z,1018.7
2016-12-21T19:28:43.078Z,1018.6
2016-12-21T19:38:57.330Z,1018.7
2016-12-21T19:49:10.797Z,1018.8
2016-12-21T20:09:38.413Z,1018.8
2016-12-21T20:19:52.304Z,1018.8
2016-12-21T20:30:05.184Z,1018.8
2016-12-21T20:40:20.168Z,1018.7
2016-12-21T20:50:34.144Z,1018.7
2016-12-21T21:00:48.648Z,1018.7
2016-12-21T21:11:02.050Z,1018.8
2016-12-21T21:21:15.171Z,1018.9
2016-12-21T21:31:30.079Z,1018.9
2016-12-21T21:41:44.407Z,1019
2016-12-21T21:51:58.099Z,1019
2016-12-21T22:02:12.603Z,1019.1
2016-12-21T22:12:27.245Z,1019.2
2016-12-21T22:22:40.300Z,1019.1
2016-12-21T22:43:07.918Z,1019.1
2016-12-21T22:53:22.798Z,1019.2
2016-12-21T23:03:37.402Z,1019.1
2016-12-21T23:13:51.867Z,1019.2
2016-12-21T23:24:06.123Z,1019.1
2016-12-21T23:34:19.424Z,1019.1
2016-12-21T23:44:33.286Z,1019.1
2016-12-21T23:54:48.056Z,1019.1
